Time;durP1;ratioP1;P1;durP2;ratioP2;P2;SDS_P1;SDS_P2;PMS_P1;PMS_P2;Temp;Humidity;BMP_temperature;BMP_pressure;BME280_temperature;BME280_humidity;BME280_pressure;Samples;Min_cycle;Max_cycle;Signal;HPM_P1;HPM_P2
2022/12/10 00:00:33;;;;;;;55.17;19.75;;;-2.50;99.90;;;;;;5084590;28;20372;-63
2022/12/10 00:02:59;;;;;;;50.85;18.42;;;-2.40;99.90;;;;;;5083213;28;20043;-63
2022/12/10 00:05:24;;;;;;;56.10;20.08;;;-2.50;99.90;;;;;;5107826;28;20040;-62
2022/12/10 00:07:50;;;;;;;61.15;21.70;;;-2.40;99.90;;;;;;5096504;28;20417;-64
2022/12/10 00:10:15;;;;;;;55.78;20.88;;;-2.40;99.90;;;;;;5097793;28;20359;-63
2022/12/10 00:12:41;;;;;;;54.13;20.33;;;-2.50;99.90;;;;;;5097685;28;20124;-64
2022/12/10 00:15:07;;;;;;;53.17;20.20;;;-2.50;99.90;;;;;;5081142;28;20075;-64
2022/12/10 00:17:33;;;;;;;56.53;21.80;;;-2.40;99.90;;;;;;5099262;28;20047;-63
2022/12/10 00:19:58;;;;;;;60.33;20.55;;;-2.50;99.90;;;;;;5102948;28;20028;-62
2022/12/10 00:22:24;;;;;;;53.42;20.52;;;-2.50;99.90;;;;;;5086118;28;20035;-63
2022/12/10 00:24:49;;;;;;;58.05;22.13;;;-2.50;99.90;;;;;;5081001;28;20168;-63
2022/12/10 00:27:15;;;;;;;58.03;20.75;;;-2.50;99.90;;;;;;5087347;28;20051;-62
2022/12/10 00:29:40;;;;;;;57.85;21.45;;;-2.50;99.90;;;;;;5107669;28;20031;-62
2022/12/10 00:32:06;;;;;;;58.03;20.50;;;-2.50;99.90;;;;;;5109628;28;20047;-62
2022/12/10 00:34:31;;;;;;;55.28;21.48;;;-2.50;99.90;;;;;;5102504;28;20035;-63
2022/12/10 00:36:57;;;;;;;64.68;22.80;;;-2.40;99.90;;;;;;5073448;28;20348;-64
2022/12/10 00:39:22;;;;;;;64.72;23.15;;;-2.40;99.90;;;;;;5105249;28;20135;-63
2022/12/10 00:41:48;;;;;;;58.65;21.77;;;-2.30;99.90;;;;;;5078668;28;20097;-63
2022/12/10 00:44:15;;;;;;;64.18;21.52;;;-2.30;99.90;;;;;;5102945;28;20032;-64
2022/12/10 00:46:41;;;;;;;70.22;23.67;;;-2.20;99.90;;;;;;5098369;28;20024;-65
2022/12/10 00:49:07;;;;;;;64.13;23.08;;;-2.10;99.90;;;;;;5085715;28;20054;-64
2022/12/10 00:51:32;;;;;;;68.20;22.15;;;-2.10;99.90;;;;;;5103796;28;20049;-63
2022/12/10 00:53:58;;;;;;;62.30;22.85;;;-2.00;99.90;;;;;;5101456;28;20130;-62
2022/12/10 00:56:29;;;;;;;65.55;23.70;;;-2.00;99.90;;;;;;5065665;28;20042;-63
2022/12/10 00:58:55;;;;;;;62.83;22.13;;;-1.90;99.90;;;;;;5066831;28;20036;-63
2022/12/10 01:01:25;;;;;;;64.60;23.77;;;-1.80;99.90;;;;;;5080558;28;20051;-63
2022/12/10 01:03:53;;;;;;;67.55;22.10;;;-1.80;99.90;;;;;;5097590;28;20033;-63
2022/12/10 01:06:23;;;;;;;65.65;23.25;;;-1.70;99.90;;;;;;5099235;28;20050;-63
2022/12/10 01:08:51;;;;;;;62.55;22.35;;;-1.70;99.90;;;;;;5103428;28;20046;-62
2022/12/10 01:11:18;;;;;;;69.85;23.10;;;-1.70;99.90;;;;;;5079674;28;20043;-62
2022/12/10 01:13:44;;;;;;;68.40;21.98;;;-1.60;99.90;;;;;;5098976;28;20480;-64
2022/12/10 01:16:12;;;;;;;67.53;22.83;;;-1.60;99.90;;;;;;5100811;28;20054;-64
2022/12/10 01:18:38;;;;;;;73.03;24.33;;;-1.50;99.90;;;;;;5100937;28;20031;-63
2022/12/10 01:21:07;;;;;;;70.68;24.40;;;-1.50;99.90;;;;;;5097775;28;20080;-64
2022/12/10 01:23:34;;;;;;;64.97;22.60;;;-1.50;99.90;;;;;;5095317;28;20039;-63
2022/12/10 01:26:01;;;;;;;74.53;23.48;;;-1.50;99.90;;;;;;5081299;28;20521;-64
2022/12/10 01:28:32;;;;;;;70.75;24.35;;;-1.40;99.90;;;;;;5087019;28;20376;-63
2022/12/10 01:31:06;;;;;;;72.63;25.02;;;-1.50;99.90;;;;;;5109417;28;20146;-63
2022/12/10 01:33:33;;;;;;;67.88;24.75;;;-1.40;99.90;;;;;;5101550;28;20501;-64
2022/12/10 01:36:04;;;;;;;70.22;25.38;;;-1.30;99.90;;;;;;5105207;28;20152;-63
2022/12/10 01:38:29;;;;;;;66.38;23.70;;;-1.40;99.90;;;;;;5077244;28;20505;-64
2022/12/10 01:40:55;;;;;;;65.55;22.52;;;-1.40;99.90;;;;;;5099233;28;20046;-64
2022/12/10 01:43:20;;;;;;;69.90;25.50;;;-1.50;99.90;;;;;;5098776;28;20123;-62
2022/12/10 01:45:46;;;;;;;61.85;22.48;;;-1.60;99.90;;;;;;5083435;28;20730;-63
2022/12/10 01:48:12;;;;;;;71.53;24.20;;;-1.60;99.90;;;;;;5085354;28;20063;-64
2022/12/10 01:50:37;;;;;;;69.07;23.55;;;-1.70;99.90;;;;;;5101998;28;20027;-64
2022/12/10 01:53:03;;;;;;;67.43;23.27;;;-1.80;99.90;;;;;;5101303;28;20088;-63
2022/12/10 01:55:50;;;;;;;72.78;24.58;;;-1.80;99.90;;;;;;5096207;28;20054;-63
2022/12/10 01:58:18;;;;;;;61.63;23.88;;;-1.80;99.90;;;;;;5102712;28;20233;-64
2022/12/10 02:00:55;;;;;;;63.90;22.38;;;-1.80;99.90;;;;;;5086453;28;20040;-63
2022/12/10 02:03:47;;;;;;;69.50;24.23;;;-1.80;99.90;;;;;;5102778;28;20168;-62
2022/12/10 02:06:43;;;;;;;67.88;24.88;;;-1.90;99.90;;;;;;5080612;28;20048;-63
2022/12/10 02:09:20;;;;;;;64.65;22.90;;;-1.90;99.90;;;;;;5102481;28;20108;-64
2022/12/10 02:12:04;;;;;;;72.63;25.60;;;-1.90;99.90;;;;;;5087294;28;20048;-63
2022/12/10 02:14:52;;;;;;;68.78;23.45;;;-2.00;99.90;;;;;;5105797;28;20336;-64
2022/12/10 02:17:36;;;;;;;61.72;22.15;;;-2.00;99.90;;;;;;5087607;28;20046;-65
2022/12/10 02:20:05;;;;;;;66.50;24.67;;;-2.10;99.90;;;;;;5082063;28;20036;-63
2022/12/10 02:22:35;;;;;;;69.35;23.85;;;-2.00;99.90;;;;;;5088493;28;20044;-62
2022/12/10 02:25:03;;;;;;;73.15;27.73;;;-2.00;99.90;;;;;;5100761;28;20042;-63
2022/12/10 02:27:57;;;;;;;71.75;24.67;;;-1.90;99.90;;;;;;5100579;28;20364;-64
2022/12/10 02:30:22;;;;;;;76.97;27.20;;;-2.00;99.90;;;;;;5090886;28;20047;-64
2022/12/10 02:32:53;;;;;;;72.30;26.75;;;-2.10;99.90;;;;;;5088238;28;20035;-65
2022/12/10 02:35:27;;;;;;;70.30;24.08;;;-2.10;99.90;;;;;;5067009;28;20036;-64
2022/12/10 02:37:59;;;;;;;69.55;23.17;;;-2.10;99.90;;;;;;5082970;28;20039;-63
2022/12/10 02:40:28;;;;;;;68.38;24.30;;;-2.10;99.90;;;;;;5095329;28;20485;-62
2022/12/10 02:42:54;;;;;;;70.30;26.65;;;-2.20;99.90;;;;;;5079785;28;20047;-63
2022/12/10 02:45:24;;;;;;;69.53;25.55;;;-2.20;99.90;;;;;;5101540;28;20036;-64
2022/12/10 02:47:51;;;;;;;71.20;23.48;;;-2.10;99.90;;;;;;5107704;28;20019;-64
2022/12/10 02:50:19;;;;;;;69.93;25.23;;;-2.20;99.90;;;;;;5082873;28;20467;-64
2022/12/10 02:52:45;;;;;;;70.90;24.13;;;-2.30;99.90;;;;;;5097371;28;20043;-64
2022/12/10 02:55:12;;;;;;;76.95;25.67;;;-2.30;99.90;;;;;;5084485;28;20039;-63
2022/12/10 02:58:07;;;;;;;68.32;23.90;;;-2.30;99.90;;;;;;5084700;28;20073;-63
2022/12/10 03:00:46;;;;;;;72.88;24.95;;;-2.30;99.90;;;;;;5101405;28;20035;-63
2022/12/10 03:03:24;;;;;;;74.00;24.10;;;-2.40;99.90;;;;;;5097216;28;20046;-63
2022/12/10 03:06:18;;;;;;;68.57;23.70;;;-2.30;99.90;;;;;;5078183;28;20042;-64
2022/12/10 03:08:50;;;;;;;77.30;25.10;;;-2.40;99.90;;;;;;5097386;28;20043;-63
2022/12/10 03:11:18;;;;;;;66.03;25.92;;;-2.30;99.90;;;;;;5105803;28;20043;-64
2022/12/10 03:14:03;;;;;;;70.50;25.25;;;-2.40;99.90;;;;;;5099170;28;20064;-64
2022/12/10 03:16:35;;;;;;;69.30;24.25;;;-2.50;99.90;;;;;;5101095;28;20118;-64
2022/12/10 03:19:07;;;;;;;76.80;25.90;;;-2.60;99.90;;;;;;5086519;28;20052;-63
2022/12/10 03:21:36;;;;;;;77.70;26.92;;;-2.50;99.90;;;;;;5084772;28;20436;-62
2022/12/10 03:24:03;;;;;;;71.07;25.23;;;-2.60;99.90;;;;;;5088061;28;20043;-64
2022/12/10 03:26:29;;;;;;;68.90;23.48;;;-2.60;99.90;;;;;;5107477;28;20032;-63
2022/12/10 03:29:03;;;;;;;68.22;24.50;;;-2.60;99.90;;;;;;5088236;28;20036;-63
2022/12/10 03:31:30;;;;;;;70.15;24.02;;;-2.70;99.90;;;;;;5108122;28;20127;-63
2022/12/10 03:33:55;;;;;;;69.25;25.67;;;-2.60;99.90;;;;;;5100276;28;20394;-64
2022/12/10 03:36:22;;;;;;;65.93;24.40;;;-2.70;99.90;;;;;;5107689;28;20027;-62
2022/12/10 03:38:48;;;;;;;76.00;25.52;;;-2.60;99.90;;;;;;5104007;28;20042;-62
2022/12/10 03:41:14;;;;;;;75.50;25.42;;;-2.50;99.90;;;;;;5105350;28;20056;-64
2022/12/10 03:43:54;;;;;;;84.40;27.05;;;-2.70;99.90;;;;;;5097648;28;20031;-63
2022/12/10 03:46:20;;;;;;;71.32;25.98;;;-2.70;99.90;;;;;;5110160;28;20161;-62
2022/12/10 03:48:46;;;;;;;73.82;26.08;;;-2.70;99.90;;;;;;5105406;28;20081;-62
2022/12/10 03:51:12;;;;;;;74.07;25.60;;;-2.60;99.90;;;;;;5109170;28;20127;-62
2022/12/10 03:53:37;;;;;;;72.32;25.10;;;-2.60;99.90;;;;;;5104485;28;20034;-62
2022/12/10 03:56:03;;;;;;;74.38;25.10;;;-2.60;99.90;;;;;;5098756;28;20122;-63
2022/12/10 03:58:28;;;;;;;72.90;23.67;;;-2.70;99.90;;;;;;5091501;28;20126;-62
2022/12/10 04:00:54;;;;;;;70.18;24.42;;;-2.80;99.90;;;;;;5107421;28;20489;-63
2022/12/10 04:03:19;;;;;;;77.65;25.85;;;-2.80;99.90;;;;;;5084481;28;20172;-63
2022/12/10 04:05:45;;;;;;;74.25;24.85;;;-2.80;99.90;;;;;;5087694;28;20027;-64
2022/12/10 04:08:10;;;;;;;73.95;26.50;;;-2.90;99.90;;;;;;5105042;28;20123;-62
2022/12/10 04:10:37;;;;;;;69.30;24.63;;;-2.90;99.90;;;;;;5090147;28;20088;-65
2022/12/10 04:18:31;;;;;;;84.65;28.15;;;-2.80;99.90;;;;;;5107338;28;20032;-63
2022/12/10 04:29:11;;;;;;;67.90;23.73;;;-2.90;99.90;;;;;;5077604;28;20398;-63
2022/12/10 04:31:36;;;;;;;72.97;26.67;;;-3.00;99.90;;;;;;5088927;28;20102;-62
2022/12/10 04:34:02;;;;;;;72.90;26.25;;;-2.90;99.90;;;;;;5089097;28;20040;-62
2022/12/10 04:36:27;;;;;;;75.80;26.65;;;-2.90;99.90;;;;;;5084400;28;20039;-64
2022/12/10 04:38:53;;;;;;;76.28;26.77;;;-3.00;99.90;;;;;;5107987;28;20046;-64
2022/12/10 04:41:18;;;;;;;74.05;27.20;;;-3.00;99.90;;;;;;5099663;28;20040;-64
2022/12/10 04:43:44;;;;;;;80.63;27.42;;;-3.10;99.90;;;;;;5107155;28;21905;-63
2022/12/10 04:46:10;;;;;;;76.15;25.88;;;-3.00;99.90;;;;;;5103792;28;20438;-62
2022/12/10 04:48:37;;;;;;;72.38;25.02;;;-3.10;99.90;;;;;;5089791;28;20118;-63
2022/12/10 04:51:03;;;;;;;75.60;26.67;;;-3.10;99.90;;;;;;5088158;28;20036;-63
2022/12/10 04:53:28;;;;;;;76.68;25.48;;;-3.20;99.90;;;;;;5096537;28;20052;-64
2022/12/10 04:55:54;;;;;;;75.30;25.30;;;-3.10;99.90;;;;;;5081841;28;20047;-64
2022/12/10 04:58:19;;;;;;;70.28;25.65;;;-3.20;99.90;;;;;;5099075;28;20071;-63
2022/12/10 05:00:45;;;;;;;83.20;28.45;;;-3.20;99.90;;;;;;5110169;28;20118;-63
2022/12/10 05:03:10;;;;;;;78.80;28.40;;;-3.20;99.90;;;;;;5109927;28;20040;-64
2022/12/10 05:05:36;;;;;;;82.28;26.73;;;-3.10;99.90;;;;;;5091150;28;20046;-63
2022/12/10 05:08:02;;;;;;;80.10;27.63;;;-3.00;99.90;;;;;;5109235;28;20036;-63
2022/12/10 05:10:27;;;;;;;80.53;27.20;;;-3.10;99.90;;;;;;5090358;28;20054;-63
2022/12/10 05:12:53;;;;;;;84.45;29.48;;;-3.20;99.90;;;;;;5083910;28;20048;-64
2022/12/10 05:15:18;;;;;;;77.93;27.55;;;-3.10;99.90;;;;;;5100497;28;20067;-63
2022/12/10 05:17:44;;;;;;;73.10;27.20;;;-3.20;99.90;;;;;;5102871;28;20030;-64
2022/12/10 05:20:10;;;;;;;73.95;26.13;;;-3.20;99.90;;;;;;5085382;28;20032;-64
2022/12/10 05:25:20;;;;;;;83.90;28.42;;;-3.10;99.90;;;;;;5102286;28;20036;-64
2022/12/10 05:27:45;;;;;;;75.93;28.30;;;-3.10;99.90;;;;;;5101466;28;20090;-63
2022/12/10 05:30:11;;;;;;;81.40;26.75;;;-3.10;99.90;;;;;;5083845;28;20174;-63
2022/12/10 05:32:36;;;;;;;71.45;27.35;;;-3.00;99.90;;;;;;5082433;28;20080;-64
2022/12/10 05:35:02;;;;;;;74.25;27.70;;;-3.10;99.90;;;;;;5084556;28;20082;-62
2022/12/10 05:37:28;;;;;;;75.72;28.75;;;-3.20;99.90;;;;;;5083900;28;20047;-62
2022/12/10 05:39:54;;;;;;;79.80;27.58;;;-3.30;99.90;;;;;;5082165;28;20043;-64
2022/12/10 05:42:20;;;;;;;73.57;26.13;;;-3.30;99.90;;;;;;5100486;28;20490;-63
2022/12/10 05:44:45;;;;;;;74.25;26.10;;;-3.30;99.90;;;;;;5098762;28;20035;-62
2022/12/10 05:47:11;;;;;;;71.18;25.08;;;-3.40;99.90;;;;;;5083940;28;20365;-63
2022/12/10 05:49:36;;;;;;;76.03;25.58;;;-3.40;99.90;;;;;;5103364;28;21216;-63
2022/12/10 05:52:02;;;;;;;72.65;25.98;;;-3.40;99.90;;;;;;5088094;28;20051;-63
2022/12/10 05:54:28;;;;;;;73.38;25.15;;;-3.50;99.90;;;;;;5079653;28;20101;-64
2022/12/10 05:56:54;;;;;;;82.60;28.20;;;-3.50;99.90;;;;;;5086901;28;20031;-63
2022/12/10 05:59:19;;;;;;;77.05;27.52;;;-3.40;99.90;;;;;;5102076;28;20380;-64
2022/12/10 06:01:45;;;;;;;79.70;27.15;;;-3.40;99.90;;;;;;5083572;28;20036;-62
2022/12/10 06:04:11;;;;;;;79.07;27.13;;;-3.30;99.90;;;;;;5099691;28;20093;-63
2022/12/10 06:06:39;;;;;;;82.05;28.17;;;-3.40;99.90;;;;;;5101824;28;20039;-63
2022/12/10 06:09:06;;;;;;;84.55;26.38;;;-3.40;99.90;;;;;;5083774;28;20028;-62
2022/12/10 06:11:32;;;;;;;83.20;25.45;;;-3.50;99.90;;;;;;5082060;28;20150;-63
2022/12/10 06:13:58;;;;;;;76.72;26.30;;;-3.50;99.90;;;;;;5107286;28;20104;-63
2022/12/10 06:16:26;;;;;;;76.53;27.58;;;-3.50;99.90;;;;;;5092445;28;20035;-65
2022/12/10 06:18:52;;;;;;;73.07;24.42;;;-3.50;99.90;;;;;;5084865;28;20039;-62
2022/12/10 06:21:19;;;;;;;78.75;26.98;;;-3.60;99.90;;;;;;5069535;28;20075;-64
2022/12/10 06:23:48;;;;;;;81.93;28.35;;;-3.40;99.90;;;;;;5105156;28;20120;-63
2022/12/10 06:26:31;;;;;;;78.30;26.58;;;-3.50;99.90;;;;;;5106178;28;20055;-64
2022/12/10 06:28:57;;;;;;;81.07;26.55;;;-3.40;99.90;;;;;;5082643;28;20523;-62
2022/12/10 06:31:23;;;;;;;73.47;25.23;;;-3.40;99.90;;;;;;5073139;28;20092;-65
2022/12/10 06:33:48;;;;;;;82.35;28.42;;;-3.40;99.90;;;;;;5090698;28;20035;-64
2022/12/10 06:36:16;;;;;;;80.00;27.75;;;-3.40;99.90;;;;;;5106018;28;20039;-62
2022/12/10 06:38:42;;;;;;;79.22;28.98;;;-3.40;99.90;;;;;;5077986;28;20394;-63
2022/12/10 06:41:10;;;;;;;84.60;27.88;;;-3.40;99.90;;;;;;5106596;28;20040;-63
2022/12/10 06:43:36;;;;;;;72.55;28.63;;;-3.30;99.90;;;;;;5084837;28;20490;-62
2022/12/10 06:46:07;;;;;;;83.53;28.75;;;-3.30;99.90;;;;;;5112905;28;20032;-63
2022/12/10 06:48:33;;;;;;;90.43;28.73;;;-3.20;99.90;;;;;;5092319;28;20122;-62
2022/12/10 06:50:58;;;;;;;84.35;27.77;;;-3.20;99.90;;;;;;5096022;28;20158;-62
2022/12/10 06:53:24;;;;;;;81.75;29.05;;;-3.20;99.90;;;;;;5091346;28;20036;-64
2022/12/10 06:55:49;;;;;;;86.70;28.60;;;-3.20;99.90;;;;;;5109718;28;20519;-63
2022/12/10 06:58:15;;;;;;;88.80;31.27;;;-3.20;99.90;;;;;;5107913;28;20489;-63
2022/12/10 07:00:40;;;;;;;83.50;27.35;;;-3.20;99.90;;;;;;5109617;28;20054;-64
2022/12/10 07:03:06;;;;;;;90.70;30.30;;;-3.20;99.90;;;;;;5084476;28;20396;-63
2022/12/10 07:05:31;;;;;;;79.22;28.98;;;-3.20;99.90;;;;;;5089258;28;20097;-64
2022/12/10 07:08:01;;;;;;;87.28;28.25;;;-3.20;99.90;;;;;;5088800;28;20032;-63
2022/12/10 07:10:27;;;;;;;85.05;28.92;;;-3.20;99.90;;;;;;5061222;28;20032;-64
2022/12/10 07:12:53;;;;;;;82.30;29.70;;;-3.30;99.90;;;;;;5096717;28;20062;-65
2022/12/10 07:15:18;;;;;;;79.78;27.17;;;-3.30;99.90;;;;;;5100705;28;20039;-63
2022/12/10 07:17:44;;;;;;;84.47;29.17;;;-3.30;99.90;;;;;;5095830;28;20027;-65
2022/12/10 07:20:11;;;;;;;80.18;27.10;;;-3.30;99.90;;;;;;5103952;28;20044;-63
2022/12/10 07:22:37;;;;;;;77.90;27.33;;;-3.40;99.90;;;;;;5092762;28;20472;-63
2022/12/10 07:25:03;;;;;;;79.68;28.52;;;-3.40;99.90;;;;;;5091152;28;20039;-63
2022/12/10 07:27:30;;;;;;;80.50;28.35;;;-3.40;99.90;;;;;;5104298;28;20036;-63
2022/12/10 07:29:56;;;;;;;83.13;28.02;;;-3.40;99.90;;;;;;5109844;28;20043;-62
2022/12/10 07:32:21;;;;;;;85.28;28.88;;;-3.40;99.90;;;;;;5091663;28;20167;-63
2022/12/10 07:34:47;;;;;;;78.63;28.00;;;-3.30;99.90;;;;;;5109942;28;20043;-62
2022/12/10 07:37:12;;;;;;;87.40;28.52;;;-3.40;99.90;;;;;;5110513;28;20043;-63
2022/12/10 07:39:38;;;;;;;79.65;26.85;;;-3.40;99.90;;;;;;5090828;28;20122;-63
2022/12/10 07:42:04;;;;;;;78.60;28.50;;;-3.40;99.90;;;;;;5110040;28;20090;-63
2022/12/10 07:44:29;;;;;;;84.05;28.60;;;-3.30;99.90;;;;;;5109370;28;20039;-63
2022/12/10 07:46:55;;;;;;;79.60;28.85;;;-3.30;99.90;;;;;;5113350;28;20512;-63
2022/12/10 07:49:21;;;;;;;82.97;31.40;;;-3.30;99.90;;;;;;5109794;28;20047;-64
2022/12/10 07:51:48;;;;;;;94.10;31.83;;;-3.20;99.90;;;;;;5111739;28;20044;-63
2022/12/10 07:54:15;;;;;;;89.68;30.25;;;-3.10;99.90;;;;;;5110328;28;20108;-64
2022/12/10 07:56:41;;;;;;;87.75;31.42;;;-3.10;99.90;;;;;;5108391;28;20028;-63
2022/12/10 07:59:06;;;;;;;98.35;30.70;;;-3.10;99.90;;;;;;5091007;28;20042;-64
2022/12/10 08:01:32;;;;;;;91.40;31.48;;;-3.10;99.90;;;;;;5092010;28;20130;-64
2022/12/10 08:03:58;;;;;;;81.43;30.63;;;-3.10;99.90;;;;;;5092919;28;20067;-63
2022/12/10 08:06:25;;;;;;;96.97;32.08;;;-3.10;99.90;;;;;;5108327;28;20080;-64
2022/12/10 08:08:50;;;;;;;91.18;31.70;;;-3.00;99.90;;;;;;5087207;28;20068;-63
2022/12/10 08:11:18;;;;;;;97.28;33.40;;;-3.00;99.90;;;;;;5088770;28;20079;-64
2022/12/10 08:13:44;;;;;;;88.95;32.53;;;-3.00;99.90;;;;;;5109804;28;20096;-62
2022/12/10 08:16:16;;;;;;;99.07;32.03;;;-3.00;99.90;;;;;;5110228;28;21322;-63
2022/12/10 08:18:42;;;;;;;83.97;31.75;;;-3.00;99.90;;;;;;5083635;28;20109;-65
2022/12/10 08:21:19;;;;;;;92.60;31.35;;;-3.10;99.90;;;;;;5109536;28;20127;-63
2022/12/10 08:23:45;;;;;;;83.28;30.63;;;-3.00;99.90;;;;;;5082971;28;20477;-64
2022/12/10 08:26:15;;;;;;;95.72;31.17;;;-2.90;99.90;;;;;;5072531;28;20032;-64
2022/12/10 08:28:41;;;;;;;;;;;-2.90;99.90;;;;;;5111250;28;20040;-62
2022/12/10 08:31:09;;;;;;;94.88;29.77;;;-2.80;99.90;;;;;;5108925;28;19942;-65
2022/12/10 08:33:36;;;;;;;92.82;32.38;;;-2.70;99.90;;;;;;5090551;28;20039;-63
2022/12/10 08:36:02;;;;;;;89.38;31.92;;;-2.80;99.90;;;;;;5094229;28;20371;-64
2022/12/10 08:38:28;;;;;;;94.53;32.67;;;-2.80;99.90;;;;;;5092929;28;20761;-63
2022/12/10 08:40:54;;;;;;;92.60;32.53;;;-2.70;99.90;;;;;;5093140;28;20040;-64
2022/12/10 08:43:20;;;;;;;98.05;31.83;;;-2.60;99.90;;;;;;5109572;28;20036;-63
2022/12/10 08:45:45;;;;;;;94.60;34.22;;;-2.50;99.90;;;;;;5113607;28;20046;-62
2022/12/10 08:48:11;;;;;;;104.43;34.00;;;-2.50;99.90;;;;;;5092557;28;20073;-63
2022/12/10 08:50:37;;;;;;;93.25;31.88;;;-2.50;99.90;;;;;;5114157;28;20114;-64
2022/12/10 08:53:03;;;;;;;100.18;32.30;;;-2.50;99.90;;;;;;5094672;28;20095;-63
2022/12/10 08:55:28;;;;;;;101.50;33.80;;;-2.50;99.90;;;;;;5113095;28;20475;-64
2022/12/10 08:57:55;;;;;;;101.10;32.60;;;-2.50;99.90;;;;;;5094221;28;20093;-63
2022/12/10 09:00:21;;;;;;;93.85;31.35;;;-2.50;99.90;;;;;;5112443;28;20038;-63
2022/12/10 09:02:47;;;;;;;88.38;31.25;;;-2.50;99.90;;;;;;5113250;28;20569;-64
2022/12/10 09:05:13;;;;;;;95.18;33.40;;;-2.50;99.90;;;;;;5113615;28;20157;-63
2022/12/10 09:07:38;;;;;;;94.80;33.10;;;-2.40;99.90;;;;;;5114152;28;20368;-63
2022/12/10 09:10:04;;;;;;;97.10;33.47;;;-2.50;99.90;;;;;;5110678;28;20039;-64
2022/12/10 09:12:30;;;;;;;94.85;32.10;;;-2.40;99.90;;;;;;5112323;28;20044;-63
2022/12/10 09:14:56;;;;;;;96.50;31.52;;;-2.40;99.90;;;;;;5112574;28;20046;-64
2022/12/10 09:17:21;;;;;;;87.30;31.95;;;-2.40;99.90;;;;;;5094826;28;20036;-64
2022/12/10 09:19:47;;;;;;;97.15;32.10;;;-2.30;99.90;;;;;;5094291;28;20064;-63
2022/12/10 09:22:13;;;;;;;93.53;31.33;;;-2.20;99.90;;;;;;5112064;28;20047;-64
2022/12/10 09:24:38;;;;;;;93.25;30.05;;;-2.20;99.90;;;;;;5091138;28;20049;-64
2022/12/10 09:27:04;;;;;;;89.07;32.45;;;-2.20;99.90;;;;;;5109723;28;20036;-64
2022/12/10 09:29:29;;;;;;;91.72;31.27;;;-2.10;99.90;;;;;;5095854;28;20032;-63
2022/12/10 09:31:55;;;;;;;88.28;31.83;;;-2.10;99.90;;;;;;5096585;28;20043;-63
2022/12/10 09:34:21;;;;;;;102.85;35.45;;;-2.00;99.90;;;;;;5091052;28;20495;-64
2022/12/10 09:36:47;;;;;;;97.32;33.83;;;-2.00;99.90;;;;;;5113632;28;20413;-64
2022/12/10 09:39:13;;;;;;;92.88;34.13;;;-1.90;99.90;;;;;;5108594;28;20051;-64
2022/12/10 09:41:56;;;;;;;104.45;33.58;;;-1.80;99.90;;;;;;5088612;28;20051;-64
2022/12/10 09:44:33;;;;;;;99.57;34.47;;;-1.70;99.90;;;;;;5084788;28;20119;-63
2022/12/10 09:47:03;;;;;;;100.82;34.00;;;-1.60;99.90;;;;;;5108443;28;20043;-64
2022/12/10 09:49:47;;;;;;;93.85;31.48;;;-1.60;99.90;;;;;;5092330;28;20092;-64
2022/12/10 09:52:16;;;;;;;102.97;32.53;;;-1.50;99.90;;;;;;5114630;28;20257;-63
2022/12/10 09:54:49;;;;;;;94.55;32.55;;;-1.50;99.90;;;;;;5093864;28;20135;-64
2022/12/10 09:57:38;;;;;;;92.50;33.13;;;-1.40;99.90;;;;;;5113324;28;20499;-64
2022/12/10 10:00:17;;;;;;;92.70;33.65;;;-1.30;99.90;;;;;;5099212;28;20031;-65
2022/12/10 10:02:43;;;;;;;95.38;31.90;;;-1.20;99.90;;;;;;5093471;28;20047;-64
2022/12/10 10:05:08;;;;;;;102.70;34.28;;;-1.10;99.90;;;;;;5113167;28;20041;-64
2022/12/10 10:07:37;;;;;;;97.50;32.67;;;-1.10;99.90;;;;;;5095732;28;20039;-64
2022/12/10 10:10:06;;;;;;;99.23;33.30;;;-1.00;99.90;;;;;;5094448;28;20429;-65
2022/12/10 10:12:34;;;;;;;103.85;34.90;;;-0.90;99.90;;;;;;5093955;28;20301;-64
2022/12/10 10:15:12;;;;;;;101.00;34.65;;;-0.90;99.90;;;;;;5094171;28;20503;-63
2022/12/10 10:17:38;;;;;;;96.13;32.67;;;-0.90;99.90;;;;;;5095528;28;20048;-64
2022/12/10 10:20:04;;;;;;;103.68;33.22;;;-0.80;99.90;;;;;;5111111;28;20050;-64
2022/12/10 10:22:30;;;;;;;90.18;32.90;;;-0.70;99.90;;;;;;5092471;28;20082;-64
2022/12/10 10:24:56;;;;;;;98.43;34.30;;;-0.70;99.90;;;;;;5093149;28;20419;-64
2022/12/10 10:27:28;;;;;;;99.93;33.72;;;-0.70;99.90;;;;;;5093720;28;20071;-65
2022/12/10 10:29:57;;;;;;;100.07;34.88;;;-0.70;99.90;;;;;;5094966;28;20071;-64
2022/12/10 10:32:36;;;;;;;101.38;32.63;;;-0.70;99.90;;;;;;5112891;28;20043;-65
2022/12/10 10:35:04;;;;;;;100.53;35.00;;;-0.70;99.90;;;;;;5086137;28;20053;-64
2022/12/10 10:37:39;;;;;;;98.45;35.20;;;-0.70;99.90;;;;;;5109675;28;20077;-65
2022/12/10 10:40:06;;;;;;;108.20;35.83;;;-0.60;99.90;;;;;;5076954;28;20630;-64
2022/12/10 10:42:41;;;;;;;94.00;32.80;;;-0.60;99.90;;;;;;5112586;28;20043;-65
2022/12/10 10:45:29;;;;;;;95.38;33.65;;;-0.50;99.90;;;;;;5093345;28;20039;-66
2022/12/10 10:48:14;;;;;;;90.90;32.55;;;-0.50;99.90;;;;;;5107487;28;20118;-64
2022/12/10 10:50:52;;;;;;;100.47;34.90;;;-0.40;99.90;;;;;;5093880;28;20043;-64
2022/12/10 10:53:31;;;;;;;96.05;34.20;;;-0.40;99.90;;;;;;5111292;28;20043;-64
2022/12/10 10:56:10;;;;;;;100.90;37.17;;;-0.40;99.90;;;;;;5094764;28;20047;-65
2022/12/10 10:58:45;;;;;;;94.68;32.42;;;-0.40;99.90;;;;;;5105072;28;20032;-64
2022/12/10 11:01:11;;;;;;;100.88;33.92;;;-0.40;99.90;;;;;;5111829;28;20050;-63
2022/12/10 11:03:47;;;;;;;95.70;32.88;;;-0.40;99.90;;;;;;5093739;28;20039;-64
2022/12/10 11:06:12;;;;;;;102.82;35.45;;;-0.40;99.90;;;;;;5090746;28;20499;-64
2022/12/10 11:08:42;;;;;;;94.97;34.53;;;-0.30;99.90;;;;;;5092335;28;20042;-64
2022/12/10 11:11:17;;;;;;;99.43;34.35;;;-0.30;99.90;;;;;;5111852;28;20050;-63
2022/12/10 11:13:43;;;;;;;89.80;30.73;;;-0.30;99.90;;;;;;5092849;28;20052;-64
2022/12/10 11:16:18;;;;;;;91.35;33.65;;;-0.30;99.90;;;;;;5112634;28;20052;-64
2022/12/10 11:19:02;;;;;;;91.40;32.55;;;-0.20;99.90;;;;;;5091703;28;20055;-63
2022/12/10 11:21:30;;;;;;;90.00;31.48;;;-0.20;99.90;;;;;;5110999;28;20040;-63
2022/12/10 11:23:57;;;;;;;92.63;32.90;;;-0.20;99.90;;;;;;5092050;28;20395;-64
2022/12/10 11:26:30;;;;;;;90.00;32.20;;;-0.10;99.90;;;;;;5092686;28;20043;-63
2022/12/10 11:29:36;;;;;;;91.47;32.95;;;-0.20;99.90;;;;;;5108790;28;20067;-64
2022/12/10 11:32:38;;;;;;;93.75;31.02;;;-0.20;99.90;;;;;;5030077;28;20180;-62
2022/12/10 11:35:41;;;;;;;86.40;31.75;;;-0.30;99.90;;;;;;5084826;28;20039;-63
2022/12/10 11:38:17;;;;;;;87.47;31.15;;;-0.10;99.90;;;;;;5090943;28;20084;-65
2022/12/10 11:41:18;;;;;;;84.63;30.80;;;-0.20;99.90;;;;;;5092538;28;20085;-63
2022/12/10 11:44:16;;;;;;;92.25;32.22;;;-0.10;99.90;;;;;;5083774;28;20032;-62
2022/12/10 11:47:00;;;;;;;88.50;30.85;;;-0.10;99.90;;;;;;5090089;28;20043;-64
2022/12/10 11:49:39;;;;;;;84.45;29.63;;;-0.20;99.90;;;;;;5099865;28;20074;-63
2022/12/10 11:52:27;;;;;;;91.13;31.52;;;-0.30;99.90;;;;;;5083116;28;20094;-64
2022/12/10 11:55:35;;;;;;;90.68;32.13;;;-0.20;99.90;;;;;;5106001;28;20043;-64
2022/12/10 11:58:19;;;;;;;87.20;31.30;;;-0.20;99.90;;;;;;5086587;28;20043;-63
2022/12/10 12:00:58;;;;;;;79.47;28.77;;;-0.20;99.90;;;;;;5109121;28;20039;-64
2022/12/10 12:03:49;;;;;;;79.53;29.63;;;-0.20;99.90;;;;;;5089535;28;20036;-64
2022/12/10 12:06:44;;;;;;;84.70;28.98;;;-0.20;99.90;;;;;;5072422;28;20036;-63
2022/12/10 12:09:27;;;;;;;94.15;30.73;;;-0.20;99.90;;;;;;5081456;28;20040;-63
2022/12/10 12:12:07;;;;;;;84.50;30.83;;;-0.20;99.90;;;;;;5091205;28;20466;-64
2022/12/10 12:14:40;;;;;;;;;;;-0.20;99.90;;;;;;5098063;28;20067;-63
2022/12/10 12:17:30;;;;;;;87.78;28.30;;;-0.20;99.90;;;;;;5107051;28;20291;-64
2022/12/10 12:20:05;;;;;;;86.90;29.50;;;-0.30;99.90;;;;;;5090432;28;20463;-64
2022/12/10 12:22:41;;;;;;;91.63;31.83;;;-0.20;99.90;;;;;;5088960;28;20040;-64
2022/12/10 12:25:30;;;;;;;89.85;30.67;;;-0.30;99.90;;;;;;5085349;28;20040;-64
2022/12/10 12:28:19;;;;;;;95.72;33.05;;;-0.40;99.90;;;;;;5097307;28;20115;-64
2022/12/10 12:30:47;;;;;;;91.78;31.05;;;-0.50;99.90;;;;;;5080742;28;20383;-65
2022/12/10 12:33:49;;;;;;;86.03;31.25;;;-0.60;99.90;;;;;;5081511;28;20479;-64
2022/12/10 12:36:37;;;;;;;97.03;32.47;;;-0.50;99.90;;;;;;5058717;28;20056;-64
2022/12/10 12:39:06;;;;;;;91.30;30.73;;;-0.70;99.90;;;;;;5088843;28;20035;-64
2022/12/10 12:41:47;;;;;;;94.65;32.00;;;-0.60;99.90;;;;;;5095711;28;20059;-63
2022/12/10 12:44:24;;;;;;;90.70;32.58;;;-0.60;99.90;;;;;;5100154;28;20039;-64
2022/12/10 12:46:50;;;;;;;87.40;30.58;;;-0.60;99.90;;;;;;5086550;28;20448;-64
2022/12/10 12:49:30;;;;;;;88.43;30.45;;;-0.60;99.90;;;;;;5076386;28;20043;-63
2022/12/10 12:52:26;;;;;;;90.55;32.00;;;-0.60;99.90;;;;;;5105947;28;20051;-63
2022/12/10 12:54:56;;;;;;;87.65;28.30;;;-0.60;99.90;;;;;;5086778;28;20051;-65
2022/12/10 12:57:38;;;;;;;89.93;29.73;;;-0.60;99.90;;;;;;5088510;28;20078;-65
2022/12/10 13:00:10;;;;;;;90.55;31.20;;;-0.60;99.90;;;;;;5093475;28;20044;-65